Terminal Aerodrome Forecast
Issued by NWS

Home | Current Version | Previous Version | Text Only | Print | Product List | Glossary On
Versions: 1 2 3 4 5 6 7 8 9 10 11 12 13 14 15 16 17 18 19 20 21 22 23 24 25 26 27 28 29 30 31 32 33 34 35 36 37 38 39 40 41 42 43 44 45 46 47 48 49 50
000
FTUS43 KMKX 240105 AAA
TAFUES
TAF AMD
KUES 240105Z 2401/2424 05005KT 6SM -SHRA SCT003 OVC008
      TEMPO 2401/2403 5SM -SHRA BR BKN003
     FM240300 VRB03KT 6SM -SHRA OVC008
     FM240600 04004KT P6SM VCSH BKN008 OVC015
     FM241000 03005KT P6SM VCSH OVC008
     FM241800 03010KT P6SM OVC008
     FM242300 02010G18KT P6SM OVC010=

USA.gov is the U.S. government's official web portal to all federal, state and local government web resources and services.